createdAt,value
2019-06-27T00:02:24.348Z,6.53
2019-06-27T00:04:55.497Z,5.60
2019-06-27T00:07:25.955Z,6.67
2019-06-27T00:09:56.729Z,6.40
2019-06-27T00:12:27.519Z,5.93
2019-06-27T00:14:58.656Z,6.20
2019-06-27T00:17:28.806Z,6.20
2019-06-27T00:20:00.537Z,5.87
2019-06-27T00:22:31.285Z,7.00
2019-06-27T00:25:02.633Z,6.80
2019-06-27T00:27:33.858Z,6.23
2019-06-27T00:30:04.486Z,6.23
2019-06-27T00:32:35.257Z,5.70
2019-06-27T00:35:07.639Z,6.10
2019-06-27T00:37:38.115Z,5.13
2019-06-27T00:40:09.124Z,7.27
2019-06-27T00:42:40.272Z,6.70
2019-06-27T00:45:11.841Z,7.20
2019-06-27T00:47:42.357Z,6.90
2019-06-27T00:50:13.925Z,6.67
2019-06-27T00:52:44.461Z,5.63
2019-06-27T00:55:15.335Z,7.00
2019-06-27T00:57:46.547Z,6.90
2019-06-27T01:00:18.189Z,5.37
2019-06-27T01:02:49.046Z,6.10
2019-06-27T01:05:18.925Z,5.77
2019-06-27T01:07:49.906Z,6.33
2019-06-27T01:10:21.945Z,6.90
2019-06-27T01:12:52.821Z,6.20
2019-06-27T01:15:24.210Z,6.10
2019-06-27T01:17:55.121Z,7.50
2019-06-27T01:20:25.515Z,6.73
2019-06-27T01:22:56.191Z,6.80
2019-06-27T01:25:27.539Z,7.10
2019-06-27T01:27:57.607Z,5.83
2019-06-27T01:30:29.637Z,5.30
2019-06-27T01:33:00.175Z,6.20
2019-06-27T01:35:31.322Z,6.20
2019-06-27T01:38:03.714Z,7.37
2019-06-27T01:40:34.733Z,5.37
2019-06-27T01:43:05.785Z,7.03
2019-06-27T01:45:42.058Z,6.50
2019-06-27T01:48:12.117Z,5.60
2019-06-27T01:50:42.583Z,7.03
2019-06-27T01:53:13.041Z,6.83
2019-06-27T01:55:43.579Z,7.70
2019-06-27T01:58:13.697Z,6.60
2019-06-27T02:00:44.137Z,6.93
2019-06-27T02:03:14.975Z,5.60
2019-06-27T02:05:45.717Z,6.60
2019-06-27T02:08:16.039Z,7.23
2019-06-27T02:10:47.212Z,6.30
2019-06-27T02:13:17.949Z,6.40
2019-06-27T02:15:48.674Z,5.83
2019-06-27T02:18:19.157Z,6.53
2019-06-27T02:20:50.158Z,5.93
2019-06-27T02:23:21.299Z,8.23
2019-06-27T02:25:51.834Z,6.53
2019-06-27T02:28:22.985Z,7.17
2019-06-27T02:30:53.389Z,6.03
2019-06-27T02:33:23.564Z,5.93
2019-06-27T02:35:54.998Z,6.47
2019-06-27T02:38:25.878Z,6.07
2019-06-27T02:40:58.724Z,4.47
2019-06-27T02:43:29.109Z,5.63
2019-06-27T02:46:00.030Z,5.27
2019-06-27T02:48:30.331Z,4.93
2019-06-27T02:51:00.866Z,5.83
2019-06-27T02:53:31.612Z,5.83
2019-06-27T02:56:02.961Z,4.37
2019-06-27T02:58:33.902Z,4.53
2019-06-27T03:01:04.051Z,5.00
2019-06-27T03:03:35.176Z,4.70
2019-06-27T03:06:06.534Z,5.13
2019-06-27T03:08:37.683Z,5.67
2019-06-27T03:11:08.635Z,4.30
2019-06-27T03:13:39.366Z,5.20
2019-06-27T03:16:10.701Z,4.90
2019-06-27T03:18:41.662Z,5.40
2019-06-27T03:21:13.233Z,5.47
2019-06-27T03:23:43.680Z,5.30
2019-06-27T03:26:14.692Z,5.97
2019-06-27T03:28:53.250Z,4.30
2019-06-27T03:31:17.738Z,6.47
2019-06-27T03:33:48.144Z,5.60
2019-06-27T03:36:18.887Z,5.10
2019-06-27T03:38:49.625Z,4.33
2019-06-27T03:41:20.345Z,5.13
2019-06-27T03:43:50.823Z,5.43
2019-06-27T03:46:21.016Z,4.83
2019-06-27T03:48:52.171Z,4.60
2019-06-27T03:51:22.296Z,4.83
2019-06-27T03:53:53.039Z,5.77
2019-06-27T03:56:23.930Z,4.90
2019-06-27T03:59:11.460Z,5.50
2019-06-27T04:01:26.547Z,5.80
2019-06-27T04:03:57.425Z,4.87
2019-06-27T04:06:27.899Z,4.23
2019-06-27T04:08:58.667Z,4.63
2019-06-27T04:11:29.334Z,5.30
2019-06-27T04:14:00.103Z,4.33
2019-06-27T04:16:37.470Z,4.73
2019-06-27T04:19:09.027Z,5.20
2019-06-27T04:21:39.762Z,4.37
2019-06-27T04:24:10.868Z,5.60
2019-06-27T04:26:48.246Z,4.90
2019-06-27T04:29:33.366Z,5.03
2019-06-27T04:31:59.113Z,4.60
2019-06-27T04:34:34.883Z,4.70
2019-06-27T04:37:06.527Z,4.23
2019-06-27T04:39:37.280Z,4.50
2019-06-27T04:42:07.156Z,4.97
2019-06-27T04:44:37.243Z,5.80
2019-06-27T04:47:08.247Z,4.70
2019-06-27T04:49:38.598Z,3.77
2019-06-27T04:52:08.708Z,4.50
2019-06-27T04:54:39.240Z,4.30
2019-06-27T04:57:10.176Z,4.70
2019-06-27T04:59:52.485Z,4.90
2019-06-27T05:02:13.913Z,4.10
2019-06-27T05:04:44.718Z,4.60
2019-06-27T05:07:15.810Z,3.87
2019-06-27T05:09:45.826Z,4.30
2019-06-27T05:12:16.202Z,4.23
2019-06-27T05:14:46.789Z,4.03
2019-06-27T05:17:18.146Z,4.40
2019-06-27T05:19:49.119Z,4.43
2019-06-27T05:22:19.577Z,4.63
2019-06-27T05:24:50.744Z,4.93
2019-06-27T05:27:22.323Z,5.27
2019-06-27T05:30:08.110Z,4.23
2019-06-27T05:32:27.276Z,4.90
2019-06-27T05:34:57.819Z,3.67
2019-06-27T05:37:28.769Z,3.60
2019-06-27T05:39:58.936Z,3.20
2019-06-27T05:42:29.621Z,4.47
2019-06-27T05:45:00.377Z,3.60
2019-06-27T05:47:31.532Z,3.17
2019-06-27T05:50:02.346Z,3.30
2019-06-27T05:52:33.412Z,3.30
2019-06-27T05:55:03.946Z,3.63
2019-06-27T05:57:35.699Z,2.80
2019-06-27T06:00:07.161Z,2.43
2019-06-27T06:02:37.745Z,3.50
2019-06-27T06:05:09.780Z,2.40
2019-06-27T06:07:40.355Z,2.53
2019-06-27T06:10:11.143Z,2.70
2019-06-27T06:12:41.294Z,2.47
2019-06-27T06:15:13.482Z,1.90
2019-06-27T06:17:43.872Z,2.50
2019-06-27T06:20:16.236Z,3.10
2019-06-27T06:22:46.979Z,2.30
2019-06-27T06:25:17.938Z,2.33
2019-06-27T06:27:48.458Z,2.00
2019-06-27T06:30:19.170Z,3.00
2019-06-27T06:32:50.047Z,2.80
2019-06-27T06:35:21.099Z,2.13
2019-06-27T06:37:52.047Z,2.63
2019-06-27T06:40:22.948Z,2.30
2019-06-27T06:42:56.994Z,2.77
2019-06-27T06:45:26.500Z,2.17
2019-06-27T06:47:57.267Z,2.50
2019-06-27T06:50:27.970Z,2.40
2019-06-27T06:52:59.324Z,2.20
2019-06-27T06:55:29.780Z,2.87
2019-06-27T06:58:01.018Z,2.43
2019-06-27T07:00:31.758Z,2.13
2019-06-27T07:03:02.684Z,2.33
2019-06-27T07:05:34.052Z,2.60
2019-06-27T07:08:04.977Z,2.60
2019-06-27T07:10:35.506Z,2.03
2019-06-27T07:13:06.096Z,2.20
2019-06-27T07:15:36.598Z,2.20
2019-06-27T07:18:06.957Z,3.17
2019-06-27T07:20:37.913Z,2.00
2019-06-27T07:23:08.623Z,3.00
2019-06-27T07:25:39.560Z,2.00
2019-06-27T07:28:12.479Z,1.90
2019-06-27T07:30:42.710Z,2.70
2019-06-27T07:33:13.458Z,2.50
2019-06-27T07:35:44.222Z,2.47
2019-06-27T07:38:14.891Z,3.30
2019-06-27T07:40:45.506Z,2.27
2019-06-27T07:43:15.516Z,2.30
2019-06-27T07:45:46.028Z,2.00
2019-06-27T07:48:16.566Z,2.33
2019-06-27T07:50:47.880Z,2.33
2019-06-27T07:53:19.144Z,1.70
2019-06-27T07:55:49.670Z,1.90
2019-06-27T07:58:21.634Z,1.33
2019-06-27T08:00:52.777Z,1.73
2019-06-27T08:03:22.942Z,1.63
2019-06-27T08:05:54.061Z,2.17
2019-06-27T08:08:24.864Z,2.37
2019-06-27T08:10:55.759Z,1.60
2019-06-27T08:13:26.104Z,1.20
2019-06-27T08:15:57.213Z,1.90
2019-06-27T08:18:28.483Z,2.10
2019-06-27T08:20:59.303Z,3.00
2019-06-27T08:23:40.981Z,1.67
2019-06-27T08:26:02.768Z,1.37
2019-06-27T08:28:33.660Z,1.70
2019-06-27T08:31:05.535Z,1.30
2019-06-27T08:33:36.165Z,1.47
2019-06-27T08:36:07.227Z,2.03
2019-06-27T08:38:38.562Z,1.40
2019-06-27T08:41:09.102Z,1.77
2019-06-27T08:43:39.905Z,1.43
2019-06-27T08:46:10.378Z,1.40
2019-06-27T08:48:41.154Z,1.60
2019-06-27T08:51:11.989Z,1.20
2019-06-27T08:53:43.000Z,2.00
2019-06-27T08:56:14.145Z,1.60
2019-06-27T08:58:44.525Z,1.57
2019-06-27T09:01:15.841Z,1.80
2019-06-27T09:03:45.991Z,2.50
2019-06-27T09:06:16.898Z,1.63
2019-06-27T09:08:47.855Z,2.20
2019-06-27T09:11:19.826Z,1.93
2019-06-27T09:13:50.347Z,1.40
2019-06-27T09:16:21.499Z,1.57
2019-06-27T09:18:52.234Z,1.30
2019-06-27T09:21:23.132Z,1.83
2019-06-27T09:23:54.330Z,1.30
2019-06-27T09:26:25.206Z,2.13
2019-06-27T09:28:56.213Z,1.90
2019-06-27T09:31:27.367Z,1.50
2019-06-27T09:33:57.851Z,2.03
2019-06-27T09:36:28.640Z,1.40
2019-06-27T09:38:59.998Z,1.50
2019-06-27T09:41:30.975Z,1.30
2019-06-27T09:44:02.086Z,1.93
2019-06-27T09:46:32.543Z,1.17
2019-06-27T09:49:03.972Z,1.83
2019-06-27T09:51:35.120Z,1.63
2019-06-27T09:54:06.473Z,1.50
2019-06-27T09:56:39.859Z,1.00
2019-06-27T09:59:10.279Z,1.07
2019-06-27T10:01:40.634Z,1.27
2019-06-27T10:04:11.357Z,1.60
2019-06-27T10:06:42.626Z,1.13
2019-06-27T10:09:13.190Z,1.60
2019-06-27T10:11:42.908Z,1.20
2019-06-27T10:14:14.021Z,1.33
2019-06-27T10:16:45.168Z,1.43
2019-06-27T10:19:16.114Z,1.37
2019-06-27T10:21:46.846Z,1.67
2019-06-27T10:24:17.797Z,1.33
2019-06-27T10:26:49.771Z,2.07
2019-06-27T10:29:20.686Z,1.37
2019-06-27T10:31:51.415Z,1.40
2019-06-27T10:34:22.395Z,1.67
2019-06-27T10:36:52.733Z,1.43
2019-06-27T10:39:22.903Z,1.33
2019-06-27T10:41:53.927Z,1.20
2019-06-27T10:44:24.879Z,1.30
2019-06-27T10:46:55.477Z,0.97
2019-06-27T10:49:26.127Z,1.40
2019-06-27T10:51:56.959Z,1.67
2019-06-27T10:54:27.902Z,0.80
2019-06-27T10:56:58.844Z,0.90
2019-06-27T10:59:29.242Z,1.30
2019-06-27T11:02:00.124Z,0.90
2019-06-27T11:04:30.454Z,1.10
2019-06-27T11:07:00.708Z,1.23
2019-06-27T11:09:31.157Z,0.80
2019-06-27T11:12:02.828Z,1.40
2019-06-27T11:14:33.967Z,0.80
2019-06-27T11:17:04.965Z,0.80
2019-06-27T11:19:51.276Z,0.70
2019-06-27T11:22:06.985Z,1.00
2019-06-27T11:24:37.592Z,0.77
2019-06-27T11:27:08.539Z,0.90
2019-06-27T11:29:39.213Z,0.73
2019-06-27T11:32:10.409Z,1.20
2019-06-27T11:34:41.365Z,1.20
2019-06-27T11:37:11.897Z,1.20
2019-06-27T11:39:42.577Z,1.10
2019-06-27T11:42:12.953Z,1.27
2019-06-27T11:44:43.508Z,1.73
2019-06-27T11:47:14.236Z,1.30
2019-06-27T11:49:44.247Z,1.17
2019-06-27T11:52:15.299Z,0.87
2019-06-27T11:54:45.993Z,0.83
2019-06-27T11:57:16.713Z,1.30
2019-06-27T11:59:47.619Z,1.30
2019-06-27T12:02:18.269Z,1.07
2019-06-27T12:04:49.209Z,1.10
2019-06-27T12:07:19.741Z,1.10
2019-06-27T12:09:50.091Z,1.00
2019-06-27T12:12:20.821Z,0.97
2019-06-27T12:14:50.875Z,0.80
2019-06-27T12:17:21.677Z,0.73
2019-06-27T12:19:52.455Z,1.20
2019-06-27T12:22:25.817Z,0.70
2019-06-27T12:24:56.173Z,0.93
2019-06-27T12:27:27.289Z,0.93
2019-06-27T12:29:58.347Z,0.87
2019-06-27T12:32:28.915Z,0.77
2019-06-27T12:35:05.111Z,0.70
2019-06-27T12:37:39.534Z,1.00
2019-06-27T12:40:09.160Z,0.50
2019-06-27T12:42:40.332Z,1.20
2019-06-27T12:45:12.711Z,1.03
2019-06-27T12:47:43.657Z,0.90
2019-06-27T12:50:15.850Z,1.07
2019-06-27T12:52:46.988Z,1.20
2019-06-27T12:55:17.119Z,0.90
2019-06-27T12:57:48.259Z,0.90
2019-06-27T13:00:19.205Z,0.90
2019-06-27T13:02:49.537Z,0.90
2019-06-27T13:05:20.832Z,1.10
2019-06-27T13:07:51.819Z,1.10
2019-06-27T13:10:23.786Z,1.10
2019-06-27T13:12:54.236Z,1.60
2019-06-27T13:15:25.611Z,1.20
2019-06-27T13:17:57.848Z,0.90
2019-06-27T13:20:28.745Z,1.00
2019-06-27T13:22:58.984Z,1.70
2019-06-27T13:25:29.659Z,0.87
2019-06-27T13:28:01.419Z,1.10
2019-06-27T13:30:35.235Z,1.23
2019-06-27T13:33:05.379Z,1.20
2019-06-27T13:35:38.148Z,0.83
2019-06-27T13:38:08.009Z,1.20
2019-06-27T13:40:38.775Z,1.03
2019-06-27T13:43:08.922Z,1.37
2019-06-27T13:45:39.693Z,1.30
2019-06-27T13:48:10.598Z,1.10
2019-06-27T13:50:42.938Z,0.90
2019-06-27T13:53:13.724Z,0.93
2019-06-27T13:55:44.007Z,1.20
2019-06-27T13:58:15.339Z,1.40
2019-06-27T14:00:47.785Z,1.50
2019-06-27T14:03:18.321Z,1.00
2019-06-27T14:05:48.797Z,1.37
2019-06-27T14:08:19.071Z,1.00
2019-06-27T14:10:49.669Z,1.13
2019-06-27T14:13:20.789Z,1.40
2019-06-27T14:15:51.411Z,2.10
2019-06-27T14:18:21.867Z,1.50
2019-06-27T14:20:52.095Z,1.90
2019-06-27T14:23:22.795Z,2.33
2019-06-27T14:25:53.744Z,1.50
2019-06-27T14:28:24.884Z,2.33
2019-06-27T14:30:56.037Z,1.27
2019-06-27T14:33:26.978Z,1.27
2019-06-27T14:35:57.143Z,1.57
2019-06-27T14:38:27.166Z,2.20
2019-06-27T14:40:57.969Z,1.40
2019-06-27T14:43:29.123Z,1.40
2019-06-27T14:45:59.444Z,1.50
2019-06-27T14:48:30.417Z,1.60
2019-06-27T14:51:01.354Z,1.80
2019-06-27T14:53:31.463Z,1.10
2019-06-27T14:56:02.414Z,1.93
2019-06-27T14:58:33.663Z,1.47
2019-06-27T15:01:08.543Z,1.50
2019-06-27T15:03:37.489Z,1.57
2019-06-27T15:06:07.989Z,1.67
2019-06-27T15:08:39.253Z,1.77
2019-06-27T15:11:09.921Z,1.20
2019-06-27T15:13:40.249Z,1.10
2019-06-27T15:16:12.380Z,1.10
2019-06-27T15:18:43.068Z,1.80
2019-06-27T15:21:14.100Z,1.00
2019-06-27T15:23:45.258Z,1.20
2019-06-27T15:26:15.793Z,0.83
2019-06-27T15:28:46.606Z,1.10
2019-06-27T15:31:17.621Z,1.43
2019-06-27T15:33:48.139Z,1.03
2019-06-27T15:36:19.357Z,1.70
2019-06-27T15:38:49.876Z,1.10
2019-06-27T15:41:21.040Z,0.93
2019-06-27T15:43:51.910Z,1.27
2019-06-27T15:46:22.067Z,0.83
2019-06-27T15:48:52.242Z,0.90
2019-06-27T15:51:22.979Z,0.50
2019-06-27T15:53:53.425Z,0.90
2019-06-27T15:56:23.993Z,0.80
2019-06-27T15:58:54.573Z,1.10
2019-06-27T16:01:25.214Z,0.67
2019-06-27T16:03:55.844Z,1.00
2019-06-27T16:06:26.590Z,0.80
2019-06-27T16:08:57.343Z,0.80
2019-06-27T16:11:28.469Z,0.70
2019-06-27T16:13:58.800Z,0.70
2019-06-27T16:16:28.869Z,0.63
2019-06-27T16:18:59.994Z,0.60
2019-06-27T16:21:30.620Z,0.70
2019-06-27T16:24:01.756Z,0.67
2019-06-27T16:26:33.492Z,0.70
2019-06-27T16:29:03.648Z,0.80
2019-06-27T16:31:33.937Z,0.80
2019-06-27T16:34:04.794Z,0.83
2019-06-27T16:36:35.059Z,0.70
2019-06-27T16:39:07.200Z,1.03
2019-06-27T16:41:37.565Z,0.80
2019-06-27T16:44:08.449Z,0.63
2019-06-27T16:46:39.230Z,1.00
2019-06-27T16:49:09.817Z,0.80
2019-06-27T16:51:43.006Z,0.70
2019-06-27T16:54:13.712Z,1.40
2019-06-27T16:56:44.655Z,1.13
2019-06-27T16:59:14.767Z,1.13
2019-06-27T17:01:46.121Z,0.70
2019-06-27T17:04:17.063Z,1.00
2019-06-27T17:06:48.010Z,0.80
2019-06-27T17:09:18.919Z,1.00
2019-06-27T17:11:49.283Z,1.03
2019-06-27T17:14:19.333Z,0.90
2019-06-27T17:16:50.365Z,0.97
2019-06-27T17:19:21.613Z,0.90
2019-06-27T17:21:52.041Z,1.20
2019-06-27T17:24:22.571Z,1.07
2019-06-27T17:26:53.049Z,1.27
2019-06-27T17:29:23.247Z,1.00
2019-06-27T17:31:53.559Z,1.30
2019-06-27T17:34:24.037Z,1.60
2019-06-27T17:36:58.011Z,1.10
2019-06-27T17:39:28.605Z,0.70
2019-06-27T17:41:59.215Z,0.77
2019-06-27T17:44:34.924Z,0.80
2019-06-27T17:47:05.996Z,0.87
2019-06-27T17:49:36.739Z,0.73
2019-06-27T17:52:07.643Z,1.17
2019-06-27T17:54:38.215Z,1.03
2019-06-27T17:57:08.941Z,0.80
2019-06-27T17:59:39.684Z,0.90
2019-06-27T18:02:10.417Z,2.60
2019-06-27T18:04:41.290Z,1.10
2019-06-27T18:07:14.646Z,1.00
2019-06-27T18:09:44.392Z,0.97
2019-06-27T18:12:14.541Z,0.77
2019-06-27T18:14:45.947Z,1.23
2019-06-27T18:17:16.699Z,0.70
2019-06-27T18:19:47.212Z,1.07
2019-06-27T18:22:17.968Z,1.33
2019-06-27T18:24:48.639Z,0.87
2019-06-27T18:27:19.658Z,1.00
2019-06-27T18:29:50.379Z,1.10
2019-06-27T18:32:21.131Z,0.70
2019-06-27T18:34:51.874Z,1.13
2019-06-27T18:37:29.546Z,1.10
2019-06-27T18:39:55.466Z,1.30
2019-06-27T18:42:26.185Z,1.40
2019-06-27T18:44:57.300Z,1.10
2019-06-27T18:47:28.170Z,1.93
2019-06-27T18:49:58.975Z,1.10
2019-06-27T18:52:29.914Z,1.37
2019-06-27T18:54:59.910Z,1.37
2019-06-27T18:57:30.990Z,1.33
2019-06-27T19:00:01.359Z,1.50
2019-06-27T19:02:32.259Z,1.30
2019-06-27T19:05:05.257Z,1.20
2019-06-27T19:07:45.008Z,1.70
2019-06-27T19:10:07.247Z,1.23
2019-06-27T19:12:38.246Z,1.53
2019-06-27T19:15:09.435Z,1.27
2019-06-27T19:17:40.390Z,1.37
2019-06-27T19:20:38.360Z,1.67
2019-06-27T19:23:26.911Z,1.30
2019-06-27T19:26:00.059Z,1.40
2019-06-27T19:28:30.693Z,1.37
2019-06-27T19:31:02.016Z,1.30
2019-06-27T19:33:33.463Z,1.23
2019-06-27T19:36:03.650Z,1.03
2019-06-27T19:38:35.442Z,1.23
2019-06-27T19:41:06.317Z,0.63
2019-06-27T19:43:37.131Z,1.10
2019-06-27T19:46:08.892Z,0.73
2019-06-27T19:48:40.653Z,1.00
2019-06-27T19:51:11.530Z,2.43
2019-06-27T19:53:42.072Z,1.23
2019-06-27T19:56:12.468Z,0.90
2019-06-27T19:58:42.998Z,1.40
2019-06-27T20:01:14.108Z,0.90
2019-06-27T20:03:45.104Z,0.93
2019-06-27T20:06:15.678Z,1.20
2019-06-27T20:08:46.326Z,0.90
2019-06-27T20:11:17.508Z,1.30
2019-06-27T20:13:48.011Z,0.70
2019-06-27T20:16:18.788Z,0.93
2019-06-27T20:18:49.936Z,1.53
2019-06-27T20:21:20.878Z,1.00
2019-06-27T20:23:51.817Z,0.87
2019-06-27T20:26:22.642Z,1.17
2019-06-27T20:28:53.706Z,1.00
2019-06-27T20:31:23.830Z,1.00
2019-06-27T20:33:54.582Z,1.43
2019-06-27T20:36:25.313Z,0.90
2019-06-27T20:38:56.675Z,0.90
2019-06-27T20:41:29.411Z,1.40
2019-06-27T20:43:59.987Z,1.03
2019-06-27T20:46:30.623Z,0.87
2019-06-27T20:49:01.296Z,1.37
2019-06-27T20:51:32.204Z,1.00
2019-06-27T20:54:02.941Z,1.20
2019-06-27T20:56:33.890Z,0.93
2019-06-27T20:59:04.618Z,0.83
2019-06-27T21:01:35.778Z,1.07
2019-06-27T21:04:06.317Z,1.67
2019-06-27T21:06:37.038Z,0.97
2019-06-27T21:09:07.522Z,1.47
2019-06-27T21:11:38.460Z,1.20
2019-06-27T21:14:09.410Z,0.97
2019-06-27T21:16:39.602Z,1.23
2019-06-27T21:19:09.874Z,0.83
2019-06-27T21:21:40.654Z,1.43
2019-06-27T21:24:12.835Z,1.10
2019-06-27T21:26:43.350Z,1.53
2019-06-27T21:29:16.973Z,1.10
2019-06-27T21:31:45.598Z,1.30
2019-06-27T21:34:16.816Z,1.60
2019-06-27T21:36:47.750Z,1.50
2019-06-27T21:39:18.907Z,1.40
2019-06-27T21:41:49.644Z,1.40
2019-06-27T21:44:19.975Z,1.50
2019-06-27T21:46:50.666Z,1.20
2019-06-27T21:49:21.684Z,1.20
2019-06-27T21:51:52.405Z,1.30
2019-06-27T21:54:23.500Z,1.17
2019-06-27T21:56:54.286Z,0.80
2019-06-27T21:59:25.654Z,1.87
2019-06-27T22:01:56.689Z,0.87
2019-06-27T22:04:30.485Z,1.07
2019-06-27T22:07:00.285Z,0.87
2019-06-27T22:09:31.282Z,1.40
2019-06-27T22:12:01.998Z,1.07
2019-06-27T22:14:32.942Z,1.10
2019-06-27T22:17:03.736Z,1.50
2019-06-27T22:19:35.461Z,1.70
2019-06-27T22:22:05.978Z,1.30
2019-06-27T22:24:36.920Z,1.87
2019-06-27T22:27:07.390Z,1.53
2019-06-27T22:29:38.617Z,0.90
2019-06-27T22:32:09.342Z,1.00
2019-06-27T22:34:40.692Z,1.30
2019-06-27T22:37:12.699Z,1.40
2019-06-27T22:40:01.224Z,1.20
2019-06-27T22:42:49.572Z,1.53
2019-06-27T22:45:37.683Z,1.57
2019-06-27T22:48:13.250Z,1.67
2019-06-27T22:51:03.811Z,1.20
2019-06-27T22:53:39.031Z,1.97
2019-06-27T22:56:10.190Z,1.73
2019-06-27T22:58:41.113Z,1.50
2019-06-27T23:01:11.716Z,1.87
2019-06-27T23:03:42.403Z,0.93
2019-06-27T23:06:13.158Z,1.47
2019-06-27T23:08:44.209Z,1.03
2019-06-27T23:11:15.223Z,2.00
2019-06-27T23:13:46.477Z,1.30
2019-06-27T23:16:17.715Z,1.20
2019-06-27T23:18:48.882Z,0.80
2019-06-27T23:21:19.678Z,1.90
2019-06-27T23:23:50.558Z,1.27
2019-06-27T23:26:21.702Z,1.67
2019-06-27T23:28:52.253Z,2.10
2019-06-27T23:31:23.184Z,1.03
2019-06-27T23:33:53.308Z,1.23
2019-06-27T23:36:23.634Z,1.30
2019-06-27T23:38:53.865Z,1.83
2019-06-27T23:41:24.852Z,1.03
2019-06-27T23:43:55.389Z,1.00
2019-06-27T23:46:42.480Z,1.20
2019-06-27T23:49:14.127Z,0.80
2019-06-27T23:51:45.470Z,1.60
2019-06-27T23:54:16.212Z,1.20
2019-06-27T23:56:46.704Z,0.87
2019-06-27T23:59:17.913Z,2.00
